Honea Path, South Carolina
Current Conditions -  °F | °C
As of 7:56 AM on Wednesday 26 Nov 2014 (Local Time) from KAND Reporting Station
Light Rain Light Rain  
Wind Chill:   Ceiling: 6500
Heat Index:   Visibility: 7mi
Dew Point:   Wind: 3mph
Humidity: 96%   Direction: 100°E
Pressure: 29.99"   Gusts: NA
Location:  34.45°N, 82.39°W
Report Text: KAND 261256Z AUTO 10003KT 7SM -RA OVC065 08/07 A2999 RMK AO2 RAE26B46 SLP155 P0001 T00780072
Loading
Personal Weather Stations






























Interactive Weather Map New forecast layout! Learn more

10-Day Weather Forecast

Advertisements
Track Severe Weather on mobile